Date,TemperatureHighF,TemperatureAvgF,TemperatureLowF,DewpointHighF,DewpointAvgF,DewpointLowF,HumidityHigh,HumidityAvg,HumidityLow,PressureMaxIn,PressureMinIn,WindSpeedMaxMPH,WindSpeedAvgMPH,GustSpeedMaxMPH,PrecipitationSumIn
2013-1-1,17,10,-2,9,0,-10,74,65,51,0.00,40.00,29,9,35,0.00
2013-1-2,27,15,0,8,1,-16,73,55,27,0.00,40.00,14,-52,15,0.00
2013-1-3,12,5,-3,0,-6,-14,66,59,48,0.00,40.00,28,19,35,0.00
2013-1-4,14,5,-2,2,-5,-10,68,64,56,0.00,40.00,29,20,35,0.00
2013-1-5,22,8,-1,8,-3,-10,65,60,52,0.00,40.00,29,14,34,0.00
2013-1-6,22,13,4,10,1,-5,66,58,46,0.00,40.00,32,22,42,0.00
2013-1-7,28,18,8,12,4,-2,61,54,45,0.00,40.00,40,21,48,0.00
2013-1-8,34,26,20,16,13,8,66,56,46,0.00,40.00,35,25,43,0.00
2013-1-9,33,26,20,21,16,10,77,65,55,0.00,40.00,39,29,50,0.00
2013-1-10,36,27,18,18,13,8,63,55,46,0.00,40.00,31,21,39,0.00
2013-1-11,24,8,-5,19,2,-10,84,78,63,0.00,40.00,20,11,27,0.00
2013-1-12,5,-3,-11,-3,-9,-17,77,74,64,0.00,40.00,12,4,17,0.00
2013-1-13,10,-5,-19,-1,-12,-25,76,70,50,0.00,40.00,13,4,16,0.00
2013-1-14,1,-10,-22,-9,-18,-28,72,68,63,0.00,40.00,29,14,32,0.00
2013-1-15,15,7,-1,5,-2,-10,68,65,62,0.00,40.00,32,22,38,0.00
2013-1-16,19,11,6,9,3,-1,73,68,63,0.00,40.00,29,23,36,0.00
2013-1-17,19,12,4,8,3,-3,73,66,60,0.00,40.00,27,18,34,0.00
2013-1-18,38,25,11,16,7,0,62,47,25,0.00,40.00,30,15,34,0.00
2013-1-19,39,23,11,13,4,-3,55,44,26,0.00,40.00,27,12,34,0.00
2013-1-20,34,20,11,12,5,-1,56,50,36,0.00,40.00,18,9,22,0.00
2013-1-21,37,24,11,15,6,-1,57,48,37,0.00,40.00,23,16,29,0.00
2013-1-22,44,25,13,17,6,-3,51,44,32,0.00,40.00,21,14,26,0.00
2013-1-23,42,33,27,11,5,1,41,31,18,0.00,40.00,36,27,44,0.00
2013-1-24,43,32,22,24,16,5,68,50,38,0.00,40.00,39,22,48,0.00
2013-1-25,45,33,25,18,15,12,66,48,27,0.00,40.00,32,19,42,0.00
2013-1-26,41,34,27,27,22,13,83,62,42,0.00,40.00,30,19,37,0.00
2013-1-27,42,33,22,29,24,18,88,69,45,0.00,40.00,31,21,41,0.00
2013-1-28,28,19,5,22,13,-7,86,76,46,0.00,40.00,22,5,27,0.00
2013-1-29,27,12,0,10,0,-10,81,61,31,0.00,40.00,17,2,26,0.00
2013-1-30,35,22,5,9,4,-5,79,47,29,0.00,40.00,22,11,27,0.00
2013-1-31,41,31,18,13,10,4,54,42,26,0.00,40.00,17,9,21,0.00